Main page
METAR-TAF:

METAR-TAF

Airports :

RAF Topcliffe

Topcliffe, England

latitude: 54-12N, longitude: 001-23W, elevation: 28 m

Current weather observation

The report was made 1 hour and 18 minutes ago, at 19:50 UTC
Wind 11 kt from the East/Southeast
Temperature 15°C
Humidity 77%
Pressure 1019 hPa
Visibility 10 km or more

METAR: EGXZ 201950Z AUTO 11011KT 9999 NCD 15/11 Q1019

Time: 22:08 (21:08 UTC)


TAF: missing

Weather observations and forecasts of more than 4000 airports (METAR and TAF reports).

The available stations are represented by yellow and red dots on the map.

Hover mouse over dot to see the name of the station.

Then click to see weather observations and forecasts.

To change the map : click on the green buttons with a black cross to zoom in, on the green button with a dash to zoom out, or on the green arrows for adjacent maps.


METAR-TAF: